Time;durP1;ratioP1;P1;durP2;ratioP2;P2;SDS_P1;SDS_P2;PMS_P1;PMS_P2;Temp;Humidity;BMP_temperature;BMP_pressure;BME280_temperature;BME280_humidity;BME280_pressure;Samples;Min_cycle;Max_cycle;Signal;HPM_P1;HPM_P2
2021/10/24 00:00:25;;;;;;;8.57;2.38;;;;;;;;;;5009906;28;20387;-65
2021/10/24 00:02:56;;;;;;;6.32;2.00;;;;;;;;;;5011716;28;20512;-63
2021/10/24 00:05:24;;;;;;;4.68;2.22;;;;;;;;;;5010442;28;20045;-65
2021/10/24 00:07:53;;;;;;;4.65;2.30;;;;;;;;;;5008825;28;20397;-63
2021/10/24 00:10:21;;;;;;;3.40;2.05;;;;;;;;;;5014450;28;20140;-64
2021/10/24 00:12:49;;;;;;;6.40;2.67;;;;;;;;;;5028816;28;20145;-63
2021/10/24 00:15:17;;;;;;;4.07;2.20;;;;;;;;;;5029229;28;20088;-64
2021/10/24 00:17:46;;;;;;;3.65;2.17;;;;;;;;;;5028289;28;20503;-64
2021/10/24 00:20:16;;;;;;;7.68;2.30;;;;;;;;;;5028720;28;20524;-63
2021/10/24 00:22:45;;;;;;;4.68;2.10;;;;;;;;;;5028449;28;20299;-65
2021/10/24 00:25:13;;;;;;;7.25;2.15;;;;;;;;;;5028306;28;20045;-66
2021/10/24 00:27:41;;;;;;;5.22;2.03;;;;;;;;;;5029274;28;20071;-64
2021/10/24 00:30:10;;;;;;;5.85;2.38;;;;;;;;;;5028501;28;20081;-63
2021/10/24 00:32:39;;;;;;;5.80;2.47;;;;;;;;;;5027074;28;20050;-64
2021/10/24 00:35:07;;;;;;;4.75;2.13;;;;;;;;;;5027130;28;20086;-64
2021/10/24 00:37:38;;;;;;;5.50;2.28;;;;;;;;;;5029125;28;20084;-64
2021/10/24 00:40:07;;;;;;;3.38;2.05;;;;;;;;;;5028075;28;20136;-65
2021/10/24 00:42:51;;;;;;;5.30;2.22;;;;;;;;;;5029017;28;20558;-66
2021/10/24 00:45:20;;;;;;;7.90;2.60;;;;;;;;;;5029433;28;20076;-63
2021/10/24 00:47:48;;;;;;;4.20;2.53;;;;;;;;;;5031357;28;20145;-63
2021/10/24 00:50:16;;;;;;;4.20;2.20;;;;;;;;;;5032727;28;20057;-65
2021/10/24 00:52:46;;;;;;;5.90;2.53;;;;;;;;;;5031599;28;20410;-63
2021/10/24 00:55:15;;;;;;;3.60;2.30;;;;;;;;;;5032717;28;20160;-64
2021/10/24 00:57:44;;;;;;;4.18;2.20;;;;;;;;;;5031947;28;20048;-64
2021/10/24 01:00:13;;;;;;;6.45;2.35;;;;;;;;;;5032563;28;20088;-63
2021/10/24 01:02:42;;;;;;;8.20;2.25;;;;;;;;;;5031472;28;20128;-63
2021/10/24 01:05:11;;;;;;;6.95;2.55;;;;;;;;;;5031871;28;20132;-64
2021/10/24 01:07:40;;;;;;;3.80;2.30;;;;;;;;;;5031210;28;20104;-65
2021/10/24 01:10:15;;;;;;;3.40;2.28;;;;;;;;;;5031522;28;20133;-64
2021/10/24 01:12:45;;;;;;;4.30;2.20;;;;;;;;;;5032618;28;20046;-64
2021/10/24 01:15:13;;;;;;;3.72;1.90;;;;;;;;;;5032266;28;20573;-64
2021/10/24 01:17:42;;;;;;;6.63;2.42;;;;;;;;;;5031960;28;20060;-63
2021/10/24 01:20:11;;;;;;;3.60;2.00;;;;;;;;;;5031172;28;20068;-65
2021/10/24 01:22:40;;;;;;;4.13;1.98;;;;;;;;;;5032275;28;20055;-63
2021/10/24 01:25:09;;;;;;;6.35;2.42;;;;;;;;;;5032478;28;20068;-64
2021/10/24 01:27:51;;;;;;;5.83;2.33;;;;;;;;;;4400358;28;10001438;-63
2021/10/24 01:30:20;;;;;;;5.18;2.00;;;;;;;;;;1385450;28;10002052;-63
2021/10/24 01:32:49;;;;;;;5.15;2.83;;;;;;;;;;5030468;28;20141;-66
2021/10/24 01:35:17;;;;;;;5.00;2.83;;;;;;;;;;5031835;28;20057;-63
2021/10/24 01:37:47;;;;;;;3.25;1.92;;;;;;;;;;5030465;28;20654;-63
2021/10/24 01:40:16;;;;;;;3.80;2.08;;;;;;;;;;5031485;28;20387;-65
2021/10/24 01:42:49;;;;;;;15.68;2.70;;;;;;;;;;5032249;28;20052;-64
2021/10/24 01:45:19;;;;;;;6.18;2.40;;;;;;;;;;5031855;28;20050;-64
2021/10/24 01:47:47;;;;;;;3.33;2.20;;;;;;;;;;5032447;28;20152;-64
2021/10/24 01:50:15;;;;;;;3.17;2.08;;;;;;;;;;5033687;28;20174;-64
2021/10/24 01:52:50;;;;;;;9.63;3.03;;;;;;;;;;5031512;28;20049;-64
2021/10/24 01:55:20;;;;;;;4.47;2.33;;;;;;;;;;5033585;28;20140;-63
2021/10/24 01:57:49;;;;;;;3.47;1.83;;;;;;;;;;5031315;28;20476;-64
2021/10/24 02:00:18;;;;;;;3.58;2.30;;;;;;;;;;5030794;28;20108;-65
2021/10/24 02:02:46;;;;;;;3.35;1.90;;;;;;;;;;5032470;28;20049;-64
2021/10/24 02:05:15;;;;;;;5.38;2.45;;;;;;;;;;5031947;28;20132;-64
2021/10/24 02:07:43;;;;;;;5.90;2.60;;;;;;;;;;5031158;28;20045;-63
2021/10/24 02:10:15;;;;;;;5.28;2.10;;;;;;;;;;5031686;28;20061;-64
2021/10/24 02:12:44;;;;;;;9.50;2.60;;;;;;;;;;5030746;28;20045;-65
2021/10/24 02:15:12;;;;;;;4.75;2.10;;;;;;;;;;5031296;28;20493;-65
2021/10/24 02:17:40;;;;;;;3.17;2.00;;;;;;;;;;5031953;28;20152;-64
2021/10/24 02:20:10;;;;;;;6.20;2.25;;;;;;;;;;5031781;28;20136;-64
2021/10/24 02:22:38;;;;;;;5.07;2.53;;;;;;;;;;5029976;28;20048;-64
2021/10/24 02:25:07;;;;;;;5.10;2.65;;;;;;;;;;5031359;28;20109;-63
2021/10/24 02:27:38;;;;;;;4.65;2.20;;;;;;;;;;5030076;28;20056;-64
2021/10/24 02:30:07;;;;;;;3.08;1.92;;;;;;;;;;5029595;28;20049;-65
2021/10/24 02:32:35;;;;;;;4.47;1.80;;;;;;;;;;5034541;28;20043;-66
2021/10/24 02:35:04;;;;;;;7.18;2.45;;;;;;;;;;5026502;28;20132;-68
2021/10/24 02:37:32;;;;;;;3.72;2.13;;;;;;;;;;5030924;28;20080;-66
2021/10/24 02:40:00;;;;;;;3.85;2.20;;;;;;;;;;5023635;28;20060;-66
2021/10/24 02:42:28;;;;;;;3.40;2.00;;;;;;;;;;5028607;28;20569;-66
2021/10/24 02:44:58;;;;;;;4.28;2.30;;;;;;;;;;5031031;28;20069;-63
2021/10/24 02:47:27;;;;;;;3.83;2.17;;;;;;;;;;5030029;28;20153;-65
2021/10/24 02:49:55;;;;;;;3.42;2.08;;;;;;;;;;5023225;28;20088;-65
2021/10/24 02:52:23;;;;;;;6.68;2.40;;;;;;;;;;5029983;28;20079;-64
2021/10/24 02:54:51;;;;;;;4.85;2.40;;;;;;;;;;5030689;28;20110;-68
2021/10/24 02:57:20;;;;;;;4.05;2.28;;;;;;;;;;5029583;28;20157;-63
2021/10/24 02:59:48;;;;;;;5.97;2.35;;;;;;;;;;5030454;28;20091;-65
2021/10/24 03:02:17;;;;;;;5.45;2.80;;;;;;;;;;5030823;28;20430;-64
2021/10/24 03:04:46;;;;;;;5.90;2.67;;;;;;;;;;5029383;28;20065;-65
2021/10/24 03:07:15;;;;;;;4.25;2.30;;;;;;;;;;5030840;28;20095;-66
2021/10/24 03:09:43;;;;;;;4.68;2.40;;;;;;;;;;5028613;28;20062;-63
2021/10/24 03:12:12;;;;;;;5.25;2.45;;;;;;;;;;5025651;28;20505;-63
2021/10/24 03:14:41;;;;;;;5.05;2.25;;;;;;;;;;5029748;28;20076;-65
2021/10/24 03:17:09;;;;;;;4.38;2.20;;;;;;;;;;5028441;28;20592;-64
2021/10/24 03:19:39;;;;;;;5.63;2.15;;;;;;;;;;5027618;28;20120;-63
2021/10/24 03:22:07;;;;;;;5.88;2.78;;;;;;;;;;5029992;28;20064;-67
2021/10/24 03:24:35;;;;;;;2.78;1.90;;;;;;;;;;5029519;28;20412;-63
2021/10/24 03:27:04;;;;;;;4.63;2.60;;;;;;;;;;5030250;28;20168;-63
2021/10/24 03:29:32;;;;;;;4.15;1.95;;;;;;;;;;5030142;28;20136;-63
2021/10/24 03:32:00;;;;;;;3.75;2.17;;;;;;;;;;5030353;28;20119;-63
2021/10/24 03:34:29;;;;;;;3.03;1.90;;;;;;;;;;5028744;28;20068;-63
2021/10/24 03:36:58;;;;;;;4.82;2.47;;;;;;;;;;5030709;28;20060;-64
2021/10/24 03:39:27;;;;;;;4.97;2.42;;;;;;;;;;5026686;28;20045;-63
2021/10/24 03:41:55;;;;;;;2.92;1.95;;;;;;;;;;5029766;28;20045;-64
2021/10/24 03:44:23;;;;;;;4.68;2.20;;;;;;;;;;5029648;28;20128;-62
2021/10/24 03:46:51;;;;;;;3.88;2.20;;;;;;;;;;5028859;28;20049;-63
2021/10/24 03:49:20;;;;;;;4.63;2.38;;;;;;;;;;5029261;28;20452;-63
2021/10/24 03:51:48;;;;;;;7.47;2.63;;;;;;;;;;5029520;28;20132;-63
2021/10/24 03:54:17;;;;;;;5.97;2.13;;;;;;;;;;5029281;28;20049;-64
2021/10/24 03:56:46;;;;;;;5.60;2.20;;;;;;;;;;5025080;28;20053;-64
2021/10/24 03:59:14;;;;;;;3.67;2.30;;;;;;;;;;5028778;28;20485;-63
2021/10/24 04:01:42;;;;;;;6.05;2.22;;;;;;;;;;5030023;28;20045;-64
2021/10/24 04:04:11;;;;;;;6.43;2.15;;;;;;;;;;5029132;28;20140;-63
2021/10/24 04:06:39;;;;;;;5.35;2.55;;;;;;;;;;5028948;28;20048;-63
2021/10/24 04:09:07;;;;;;;7.55;2.60;;;;;;;;;;5028301;28;20515;-63
2021/10/24 04:11:37;;;;;;;4.95;2.00;;;;;;;;;;5029583;28;20881;-63
2021/10/24 04:14:06;;;;;;;3.75;2.05;;;;;;;;;;5028921;28;20103;-64
2021/10/24 04:16:34;;;;;;;6.53;2.47;;;;;;;;;;5027714;28;20077;-64
2021/10/24 04:19:02;;;;;;;3.03;2.28;;;;;;;;;;5028970;28;20399;-62
2021/10/24 04:21:30;;;;;;;4.45;2.20;;;;;;;;;;5029651;28;20069;-63
2021/10/24 04:23:59;;;;;;;5.22;2.75;;;;;;;;;;5028620;28;20051;-63
2021/10/24 04:26:28;;;;;;;3.63;2.17;;;;;;;;;;5029085;28;20060;-63
2021/10/24 04:28:57;;;;;;;5.55;2.08;;;;;;;;;;5022538;28;20060;-66
2021/10/24 04:31:26;;;;;;;6.18;2.40;;;;;;;;;;5029501;28;20077;-64
2021/10/24 04:33:54;;;;;;;6.20;2.67;;;;;;;;;;5028717;28;20054;-63
2021/10/24 04:36:22;;;;;;;7.05;2.15;;;;;;;;;;5019659;28;20109;-63
2021/10/24 04:38:50;;;;;;;4.70;2.35;;;;;;;;;;5027803;28;20077;-64
2021/10/24 04:41:19;;;;;;;4.53;2.55;;;;;;;;;;5028764;28;20041;-63
2021/10/24 04:43:47;;;;;;;3.20;2.38;;;;;;;;;;5028616;28;20053;-63
2021/10/24 04:46:17;;;;;;;4.65;2.45;;;;;;;;;;5026400;28;20323;-63
2021/10/24 04:48:45;;;;;;;7.43;2.42;;;;;;;;;;5026752;28;20146;-64
2021/10/24 04:51:13;;;;;;;5.28;2.50;;;;;;;;;;5028178;28;20136;-66
2021/10/24 04:53:41;;;;;;;6.20;2.75;;;;;;;;;;5027260;28;20045;-63
2021/10/24 04:56:10;;;;;;;5.35;2.70;;;;;;;;;;5027993;28;20130;-63
2021/10/24 04:58:38;;;;;;;5.15;2.47;;;;;;;;;;5028635;28;20141;-63
2021/10/24 05:01:07;;;;;;;10.07;2.92;;;;;;;;;;5028070;28;20063;-63
2021/10/24 05:03:38;;;;;;;5.80;2.63;;;;;;;;;;5025394;28;20147;-63
2021/10/24 05:06:07;;;;;;;4.20;2.42;;;;;;;;;;5029714;28;20077;-63
2021/10/24 05:08:35;;;;;;;5.43;2.47;;;;;;;;;;5028798;28;20053;-64
2021/10/24 05:11:03;;;;;;;8.77;2.72;;;;;;;;;;5023792;28;20156;-64
2021/10/24 05:13:32;;;;;;;6.55;2.60;;;;;;;;;;5027367;28;20073;-63
2021/10/24 05:16:01;;;;;;;3.97;2.58;;;;;;;;;;5028058;28;20120;-63
2021/10/24 05:18:29;;;;;;;5.72;2.70;;;;;;;;;;5029605;28;20400;-64
2021/10/24 05:20:59;;;;;;;4.47;2.53;;;;;;;;;;5027374;28;20132;-64
2021/10/24 05:23:27;;;;;;;8.50;2.55;;;;;;;;;;5028496;28;20383;-67
2021/10/24 05:25:55;;;;;;;8.63;2.78;;;;;;;;;;5024675;28;20053;-66
2021/10/24 05:28:23;;;;;;;11.75;3.20;;;;;;;;;;5025054;28;20056;-66
2021/10/24 05:30:52;;;;;;;5.50;2.78;;;;;;;;;;5023919;28;20392;-65
2021/10/24 05:33:20;;;;;;;6.20;3.10;;;;;;;;;;5026897;28;20061;-66
2021/10/24 05:35:52;;;;;;;4.95;2.75;;;;;;;;;;5028637;28;20053;-64
2021/10/24 05:38:21;;;;;;;4.63;3.13;;;;;;;;;;5029664;28;20045;-65
2021/10/24 05:40:50;;;;;;;5.78;3.08;;;;;;;;;;5028205;28;20136;-65
2021/10/24 05:43:18;;;;;;;7.43;2.90;;;;;;;;;;5028675;28;20495;-63
2021/10/24 05:45:47;;;;;;;5.80;2.92;;;;;;;;;;5029527;28;20507;-64
2021/10/24 05:48:16;;;;;;;9.77;3.42;;;;;;;;;;5030068;28;20135;-64
2021/10/24 05:50:44;;;;;;;6.07;3.08;;;;;;;;;;5019938;28;20520;-64
2021/10/24 05:53:13;;;;;;;8.50;3.05;;;;;;;;;;5027933;28;20164;-64
2021/10/24 05:55:42;;;;;;;7.72;3.35;;;;;;;;;;5027958;28;20120;-63
2021/10/24 05:58:10;;;;;;;7.07;2.75;;;;;;;;;;5028928;28;20140;-66
2021/10/24 06:00:39;;;;;;;6.85;3.25;;;;;;;;;;5029111;28;20136;-63
2021/10/24 06:03:07;;;;;;;5.93;2.70;;;;;;;;;;5027708;28;20089;-65
2021/10/24 06:05:36;;;;;;;8.57;3.30;;;;;;;;;;5031855;28;20041;-63
2021/10/24 06:08:05;;;;;;;4.95;2.22;;;;;;;;;;5026317;28;20049;-63
2021/10/24 06:10:34;;;;;;;7.22;3.10;;;;;;;;;;5028189;28;20088;-64
2021/10/24 06:13:04;;;;;;;7.40;2.83;;;;;;;;;;5027558;28;20516;-64
2021/10/24 06:15:33;;;;;;;5.22;2.90;;;;;;;;;;5028146;28;20051;-64
2021/10/24 06:18:01;;;;;;;7.28;3.28;;;;;;;;;;5027547;28;20057;-64
2021/10/24 06:20:30;;;;;;;7.07;3.05;;;;;;;;;;5027327;28;20133;-64
2021/10/24 06:22:58;;;;;;;5.63;3.13;;;;;;;;;;5026637;28;20057;-65
2021/10/24 06:25:26;;;;;;;6.15;2.83;;;;;;;;;;5026319;28;20054;-66
2021/10/24 06:27:55;;;;;;;5.80;2.95;;;;;;;;;;5027102;28;20073;-65
2021/10/24 06:30:24;;;;;;;5.93;2.85;;;;;;;;;;5028580;28;20061;-65
2021/10/24 06:32:53;;;;;;;6.50;2.88;;;;;;;;;;5033401;28;20132;-64
2021/10/24 06:35:21;;;;;;;6.70;3.40;;;;;;;;;;5033487;28;20113;-64
2021/10/24 06:37:50;;;;;;;6.28;3.30;;;;;;;;;;5028271;28;20050;-64
2021/10/24 06:40:19;;;;;;;4.25;3.10;;;;;;;;;;5027319;28;20462;-64
2021/10/24 06:42:47;;;;;;;4.50;3.00;;;;;;;;;;5025939;28;20707;-64
2021/10/24 06:45:15;;;;;;;6.60;3.33;;;;;;;;;;5027277;28;20073;-65
2021/10/24 06:47:45;;;;;;;6.47;2.92;;;;;;;;;;5025499;28;20128;-64
2021/10/24 06:50:13;;;;;;;7.15;3.55;;;;;;;;;;5025640;28;20722;-64
2021/10/24 06:52:42;;;;;;;6.85;3.70;;;;;;;;;;5025282;28;20054;-64
2021/10/24 06:55:10;;;;;;;7.15;3.60;;;;;;;;;;5020616;28;20045;-65
2021/10/24 06:57:48;;;;;;;10.07;4.45;;;;;;;;;;5022318;28;20057;-66
2021/10/24 07:00:19;;;;;;;10.95;4.13;;;;;;;;;;5021598;28;20172;-67
2021/10/24 07:02:48;;;;;;;8.05;4.03;;;;;;;;;;5029517;28;20084;-65
2021/10/24 07:05:17;;;;;;;6.18;3.90;;;;;;;;;;5025133;28;20057;-64
2021/10/24 07:07:45;;;;;;;7.70;3.72;;;;;;;;;;5024752;28;20100;-66
2021/10/24 07:10:15;;;;;;;7.43;4.18;;;;;;;;;;5023859;28;20133;-64
2021/10/24 07:12:43;;;;;;;8.57;4.38;;;;;;;;;;5023875;28;20092;-63
2021/10/24 07:15:12;;;;;;;9.32;4.25;;;;;;;;;;5020721;28;20453;-63
2021/10/24 07:17:40;;;;;;;7.47;3.72;;;;;;;;;;5026546;28;20129;-67
2021/10/24 07:20:11;;;;;;;7.45;4.10;;;;;;;;;;5029618;28;20077;-64
2021/10/24 07:22:39;;;;;;;11.15;4.78;;;;;;;;;;5026432;28;20425;-64
2021/10/24 07:25:08;;;;;;;10.38;4.53;;;;;;;;;;5025882;28;20063;-64
2021/10/24 07:27:36;;;;;;;10.30;4.70;;;;;;;;;;5026964;28;20050;-66
2021/10/24 07:30:05;;;;;;;9.35;5.18;;;;;;;;;;5027137;28;20055;-64
2021/10/24 07:32:34;;;;;;;11.52;5.03;;;;;;;;;;5027071;28;20612;-66
2021/10/24 07:35:02;;;;;;;10.50;5.00;;;;;;;;;;5026584;28;20430;-64
2021/10/24 07:37:32;;;;;;;9.80;4.95;;;;;;;;;;5026238;28;20485;-66
2021/10/24 07:40:00;;;;;;;8.70;3.97;;;;;;;;;;5026291;28;20140;-66
2021/10/24 07:42:29;;;;;;;9.75;4.85;;;;;;;;;;5023580;28;20073;-63
2021/10/24 07:44:58;;;;;;;10.70;4.90;;;;;;;;;;5016800;28;20088;-70
2021/10/24 07:47:30;;;;;;;6.65;4.30;;;;;;;;;;5021686;28;20048;-68
2021/10/24 07:49:58;;;;;;;15.07;5.20;;;;;;;;;;5024277;28;20048;-66
2021/10/24 07:52:26;;;;;;;11.40;5.45;;;;;;;;;;5025122;28;20512;-67
2021/10/24 07:55:01;;;;;;;11.38;4.97;;;;;;;;;;5025837;28;20050;-65
2021/10/24 07:57:29;;;;;;;9.73;5.05;;;;;;;;;;5024938;28;20132;-64
2021/10/24 07:59:57;;;;;;;10.30;5.40;;;;;;;;;;5025492;28;20156;-66
2021/10/24 08:02:25;;;;;;;9.77;5.25;;;;;;;;;;5024377;28;20512;-66
2021/10/24 08:04:54;;;;;;;10.27;4.70;;;;;;;;;;5025240;28;20115;-64
2021/10/24 08:07:22;;;;;;;17.42;6.55;;;;;;;;;;5025240;28;20115;-64
2021/10/24 08:09:51;;;;;;;11.45;5.72;;;;;;;;;;5027272;28;20056;-64
2021/10/24 08:12:21;;;;;;;10.25;5.55;;;;;;;;;;5028045;28;20049;-64
2021/10/24 08:14:50;;;;;;;10.57;5.20;;;;;;;;;;5027338;28;20396;-66
2021/10/24 08:17:19;;;;;;;14.13;5.75;;;;;;;;;;5026231;28;20132;-65
2021/10/24 08:19:47;;;;;;;10.23;5.47;;;;;;;;;;5025331;28;20057;-65
2021/10/24 08:22:18;;;;;;;11.85;5.78;;;;;;;;;;5026937;28;20529;-65
2021/10/24 08:24:47;;;;;;;11.82;5.85;;;;;;;;;;5023773;28;20417;-65
2021/10/24 08:27:16;;;;;;;7.40;4.25;;;;;;;;;;5027641;28;20042;-63
2021/10/24 08:29:46;;;;;;;8.60;4.70;;;;;;;;;;5025407;28;20489;-63
2021/10/24 08:32:14;;;;;;;10.77;5.20;;;;;;;;;;5014207;28;20524;-64
2021/10/24 08:34:43;;;;;;;13.50;5.65;;;;;;;;;;5026623;28;20076;-63
2021/10/24 08:37:12;;;;;;;9.30;4.68;;;;;;;;;;5025067;28;20136;-69
2021/10/24 08:39:42;;;;;;;7.45;4.65;;;;;;;;;;5019453;28;20128;-65
2021/10/24 08:42:11;;;;;;;11.50;4.55;;;;;;;;;;5027476;28;20460;-63
2021/10/24 08:44:39;;;;;;;7.55;4.68;;;;;;;;;;5025947;28;20060;-64
2021/10/24 08:47:09;;;;;;;12.18;4.93;;;;;;;;;;5027365;28;20041;-63
2021/10/24 08:49:38;;;;;;;7.82;4.50;;;;;;;;;;5027928;28;20081;-63
2021/10/24 08:52:07;;;;;;;6.68;4.15;;;;;;;;;;5027872;28;20085;-63
2021/10/24 08:54:36;;;;;;;8.55;4.20;;;;;;;;;;5026957;28;20054;-63
2021/10/24 08:57:05;;;;;;;8.18;4.55;;;;;;;;;;5027935;28;20085;-64
2021/10/24 08:59:34;;;;;;;9.27;4.95;;;;;;;;;;5028817;28;20045;-64
2021/10/24 09:02:04;;;;;;;9.77;4.00;;;;;;;;;;5027159;28;20057;-63
2021/10/24 09:04:49;;;;;;;11.23;4.45;;;;;;;;;;5025442;28;20050;-63
2021/10/24 09:07:17;;;;;;;6.33;4.20;;;;;;;;;;5025348;28;20434;-63
2021/10/24 09:09:46;;;;;;;7.10;3.78;;;;;;;;;;5029901;28;20081;-64
2021/10/24 09:12:16;;;;;;;10.88;4.35;;;;;;;;;;5008100;28;20058;-64
2021/10/24 09:14:47;;;;;;;12.40;3.95;;;;;;;;;;5015564;28;20041;-63
2021/10/24 09:17:17;;;;;;;7.20;3.92;;;;;;;;;;5024775;28;20481;-63
2021/10/24 09:19:51;;;;;;;6.25;4.35;;;;;;;;;;5015720;28;20054;-63
2021/10/24 09:22:29;;;;;;;10.35;3.55;;;;;;;;;;5006715;28;20053;-64
2021/10/24 09:25:16;;;;;;;8.63;3.75;;;;;;;;;;4955915;28;20054;-64
2021/10/24 09:27:46;;;;;;;8.10;3.55;;;;;;;;;;5006643;28;20045;-64
2021/10/24 09:30:16;;;;;;;6.93;3.60;;;;;;;;;;5009274;28;20053;-64
2021/10/24 09:32:52;;;;;;;7.97;3.40;;;;;;;;;;5009431;28;20046;-63
2021/10/24 09:35:24;;;;;;;7.20;3.47;;;;;;;;;;5010333;28;20124;-63
2021/10/24 09:37:53;;;;;;;6.85;3.88;;;;;;;;;;5010890;28;20517;-63
2021/10/24 09:40:25;;;;;;;5.68;3.13;;;;;;;;;;5007892;28;20132;-63
2021/10/24 09:43:14;;;;;;;5.57;2.53;;;;;;;;;;5011192;28;20050;-63
2021/10/24 09:45:43;;;;;;;6.18;3.15;;;;;;;;;;5010058;28;20049;-63
2021/10/24 09:48:12;;;;;;;5.50;3.22;;;;;;;;;;5009093;28;20054;-63
2021/10/24 09:50:46;;;;;;;4.53;2.55;;;;;;;;;;5016876;28;20045;-63
2021/10/24 09:53:18;;;;;;;5.65;2.75;;;;;;;;;;5010947;28;20100;-63
2021/10/24 09:55:48;;;;;;;5.90;2.95;;;;;;;;;;5013641;28;20053;-64
2021/10/24 09:58:17;;;;;;;5.43;2.22;;;;;;;;;;5010758;28;20308;-63
2021/10/24 10:00:46;;;;;;;6.07;2.67;;;;;;;;;;5011702;28;20058;-63
2021/10/24 10:03:16;;;;;;;5.78;2.55;;;;;;;;;;5000431;28;20259;-62
2021/10/24 10:05:46;;;;;;;4.60;2.50;;;;;;;;;;5020096;28;20068;-63
2021/10/24 10:08:37;;;;;;;5.82;2.35;;;;;;;;;;5004013;28;20127;-63
2021/10/24 10:11:08;;;;;;;3.45;2.60;;;;;;;;;;5003951;28;20571;-63
2021/10/24 10:13:38;;;;;;;4.15;2.10;;;;;;;;;;5024857;28;20053;-63
2021/10/24 10:16:28;;;;;;;6.78;2.38;;;;;;;;;;5029844;28;20076;-63
2021/10/24 10:19:04;;;;;;;7.82;2.30;;;;;;;;;;5029642;28;20064;-66
2021/10/24 10:21:35;;;;;;;5.82;2.50;;;;;;;;;;5030268;28;20053;-63
2021/10/24 10:24:05;;;;;;;5.30;2.42;;;;;;;;;;5028005;28;20658;-63
2021/10/24 10:26:35;;;;;;;4.15;2.28;;;;;;;;;;5030325;28;20049;-63
2021/10/24 10:29:04;;;;;;;6.25;2.28;;;;;;;;;;5031286;28;20057;-62
2021/10/24 10:31:33;;;;;;;4.05;2.17;;;;;;;;;;5030101;28;20050;-64
2021/10/24 10:34:03;;;;;;;4.70;2.25;;;;;;;;;;5028452;28;20534;-63
2021/10/24 10:36:50;;;;;;;5.18;2.60;;;;;;;;;;5029554;28;20045;-64
2021/10/24 10:39:37;;;;;;;3.00;1.95;;;;;;;;;;5028350;28;20056;-64
2021/10/24 10:42:42;;;;;;;6.13;2.35;;;;;;;;;;5028214;28;20042;-63
2021/10/24 10:45:22;;;;;;;5.63;2.60;;;;;;;;;;4999108;28;20167;-63
2021/10/24 10:47:52;;;;;;;3.58;1.90;;;;;;;;;;5030295;28;20045;-64
2021/10/24 10:50:39;;;;;;;3.90;1.92;;;;;;;;;;5017118;28;20380;-63
2021/10/24 10:53:09;;;;;;;2.83;1.83;;;;;;;;;;5029673;28;20136;-64
2021/10/24 10:55:52;;;;;;;4.50;2.22;;;;;;;;;;5025740;28;20049;-63
2021/10/24 10:58:28;;;;;;;3.80;2.20;;;;;;;;;;5010852;28;20079;-63
2021/10/24 11:00:58;;;;;;;5.05;1.92;;;;;;;;;;5030316;28;20049;-65
2021/10/24 11:03:44;;;;;;;5.07;2.20;;;;;;;;;;5019738;28;20049;-65
2021/10/24 11:06:33;;;;;;;3.78;1.83;;;;;;;;;;5017288;28;20118;-64
2021/10/24 11:09:02;;;;;;;4.40;2.03;;;;;;;;;;5030849;28;20092;-67
2021/10/24 11:11:49;;;;;;;3.75;1.90;;;;;;;;;;5029210;28;20221;-63
2021/10/24 11:14:32;;;;;;;3.13;1.92;;;;;;;;;;5019236;28;20049;-64
2021/10/24 11:17:03;;;;;;;5.07;2.03;;;;;;;;;;5041782;28;20056;-62
2021/10/24 11:19:50;;;;;;;3.40;1.67;;;;;;;;;;5034148;28;20068;-64
2021/10/24 11:22:20;;;;;;;5.57;2.40;;;;;;;;;;5033181;28;20053;-63
2021/10/24 11:24:49;;;;;;;4.47;2.22;;;;;;;;;;5032691;28;20061;-65
2021/10/24 11:27:19;;;;;;;3.15;1.55;;;;;;;;;;5028727;28;20412;-63
2021/10/24 11:29:48;;;;;;;4.28;1.73;;;;;;;;;;5029534;28;20756;-63
2021/10/24 11:32:24;;;;;;;2.53;1.83;;;;;;;;;;5028374;28;20385;-63
2021/10/24 11:34:53;;;;;;;2.55;1.90;;;;;;;;;;5027900;28;20054;-63
2021/10/24 11:37:32;;;;;;;4.90;2.05;;;;;;;;;;5027789;28;20048;-62
2021/10/24 11:40:02;;;;;;;4.80;2.20;;;;;;;;;;5026962;28;20103;-65
2021/10/24 11:42:30;;;;;;;3.22;1.90;;;;;;;;;;5029201;28;20049;-63
2021/10/24 11:44:59;;;;;;;5.35;2.38;;;;;;;;;;5028333;28;20085;-63
2021/10/24 11:47:29;;;;;;;5.65;1.90;;;;;;;;;;5027357;28;20049;-64
2021/10/24 11:49:58;;;;;;;2.70;1.60;;;;;;;;;;5021491;28;20133;-66
2021/10/24 11:52:27;;;;;;;5.70;2.10;;;;;;;;;;5027023;28;20128;-65
2021/10/24 11:55:05;;;;;;;6.15;2.13;;;;;;;;;;5030191;28;20045;-64
2021/10/24 11:57:59;;;;;;;4.20;1.70;;;;;;;;;;5030665;28;20092;-63
2021/10/24 12:00:39;;;;;;;3.20;1.92;;;;;;;;;;5029948;28;20097;-65
2021/10/24 12:03:09;;;;;;;4.55;2.25;;;;;;;;;;5029270;28;20146;-63
2021/10/24 12:05:39;;;;;;;6.35;1.90;;;;;;;;;;5030432;28;20141;-63
2021/10/24 12:08:07;;;;;;;6.40;2.13;;;;;;;;;;5029675;28;20053;-63
2021/10/24 12:10:36;;;;;;;3.38;1.67;;;;;;;;;;5029977;28;20058;-62
2021/10/24 12:13:05;;;;;;;4.90;1.83;;;;;;;;;;5029398;28;20523;-63
2021/10/24 12:15:37;;;;;;;4.50;2.08;;;;;;;;;;5028407;28;20119;-63
2021/10/24 12:18:14;;;;;;;6.80;2.08;;;;;;;;;;5030226;28;20088;-63
2021/10/24 12:20:55;;;;;;;3.22;1.75;;;;;;;;;;5029995;28;20045;-63
2021/10/24 12:23:27;;;;;;;3.42;2.03;;;;;;;;;;5029537;28;20144;-64
2021/10/24 12:25:57;;;;;;;4.93;2.30;;;;;;;;;;5027947;28;20510;-63
2021/10/24 12:28:29;;;;;;;5.05;2.42;;;;;;;;;;5010927;28;20054;-63
2021/10/24 12:30:58;;;;;;;3.35;2.20;;;;;;;;;;5028001;28;20050;-65
2021/10/24 12:33:30;;;;;;;4.82;2.30;;;;;;;;;;5030090;28;20687;-65
2021/10/24 12:36:00;;;;;;;4.38;2.10;;;;;;;;;;5032956;28;20051;-65
2021/10/24 12:38:49;;;;;;;5.20;2.08;;;;;;;;;;5030171;28;20080;-63
2021/10/24 12:41:19;;;;;;;3.95;2.08;;;;;;;;;;5016313;28;20099;-63
2021/10/24 12:43:48;;;;;;;7.03;2.30;;;;;;;;;;5028886;28;20141;-63
2021/10/24 12:46:27;;;;;;;5.72;2.55;;;;;;;;;;5028970;28;20274;-64
2021/10/24 12:48:57;;;;;;;2.70;1.92;;;;;;;;;;5028968;28;20049;-64
2021/10/24 12:51:27;;;;;;;5.72;2.30;;;;;;;;;;5030208;28;20050;-64
2021/10/24 12:53:57;;;;;;;2.58;2.00;;;;;;;;;;5029453;28;20056;-64
2021/10/24 12:56:26;;;;;;;3.28;1.90;;;;;;;;;;5029655;28;20045;-63
2021/10/24 12:58:55;;;;;;;3.67;1.88;;;;;;;;;;5029610;28;20393;-62
2021/10/24 13:01:24;;;;;;;6.15;2.53;;;;;;;;;;5030052;28;20421;-63
2021/10/24 13:03:54;;;;;;;3.67;2.08;;;;;;;;;;5028654;28;20049;-62
2021/10/24 13:06:25;;;;;;;5.38;2.30;;;;;;;;;;5029505;28;20049;-65
2021/10/24 13:08:55;;;;;;;4.70;1.88;;;;;;;;;;5028331;28;20045;-63
2021/10/24 13:11:23;;;;;;;6.03;2.20;;;;;;;;;;5027779;28;20060;-63
2021/10/24 13:13:52;;;;;;;6.47;1.85;;;;;;;;;;5029106;28;20049;-63
2021/10/24 13:16:21;;;;;;;2.30;1.77;;;;;;;;;;5029539;28;20145;-63
2021/10/24 13:18:50;;;;;;;4.47;2.15;;;;;;;;;;5028960;28;20049;-63
2021/10/24 13:24:08;;;;;;;4.45;1.95;;;;;;;;;;5019724;28;20508;-63
2021/10/24 13:26:38;;;;;;;3.28;1.63;;;;;;;;;;5024559;28;20116;-63
2021/10/24 13:29:07;;;;;;;3.35;1.95;;;;;;;;;;5022336;28;20045;-64
2021/10/24 13:31:36;;;;;;;6.13;2.03;;;;;;;;;;5026712;28;20517;-66
2021/10/24 13:34:06;;;;;;;3.90;1.83;;;;;;;;;;5021323;28;20685;-63
2021/10/24 13:36:35;;;;;;;3.95;1.63;;;;;;;;;;5028401;28;20052;-63
2021/10/24 13:39:04;;;;;;;3.10;2.03;;;;;;;;;;5027098;28;20385;-63
2021/10/24 13:41:34;;;;;;;4.80;1.95;;;;;;;;;;5027577;28;20049;-65
2021/10/24 13:44:03;;;;;;;3.10;1.83;;;;;;;;;;5026055;28;20061;-63
2021/10/24 13:46:32;;;;;;;3.33;1.88;;;;;;;;;;5027107;28;20476;-63
2021/10/24 13:49:00;;;;;;;4.78;1.98;;;;;;;;;;5029120;28;20052;-63
2021/10/24 13:51:30;;;;;;;5.03;2.17;;;;;;;;;;5026910;28;20049;-62
2021/10/24 13:53:59;;;;;;;4.30;2.42;;;;;;;;;;5027430;28;20394;-65
2021/10/24 13:56:27;;;;;;;8.70;3.33;;;;;;;;;;5032494;28;20045;-65
2021/10/24 13:58:57;;;;;;;6.07;2.35;;;;;;;;;;5032826;28;20132;-65
2021/10/24 14:01:26;;;;;;;3.22;2.10;;;;;;;;;;5032394;28;20440;-63
2021/10/24 14:03:57;;;;;;;3.17;2.03;;;;;;;;;;5030771;28;20046;-63
2021/10/24 14:06:26;;;;;;;5.57;2.35;;;;;;;;;;5033172;28;20063;-64
2021/10/24 14:08:55;;;;;;;5.90;1.80;;;;;;;;;;5027897;28;20044;-64
2021/10/24 14:11:24;;;;;;;4.15;2.20;;;;;;;;;;5024485;28;20335;-63
2021/10/24 14:13:53;;;;;;;3.75;1.88;;;;;;;;;;5028839;28;20057;-64
2021/10/24 14:16:24;;;;;;;4.03;2.28;;;;;;;;;;5030962;28;20111;-63
2021/10/24 14:18:52;;;;;;;5.25;2.80;;;;;;;;;;5029345;28;20054;-66
2021/10/24 14:21:21;;;;;;;3.13;2.15;;;;;;;;;;5026869;28;20048;-64
2021/10/24 14:23:50;;;;;;;5.97;2.58;;;;;;;;;;5029699;28;20089;-63
2021/10/24 14:26:19;;;;;;;5.75;2.60;;;;;;;;;;5031380;28;20453;-67
2021/10/24 14:28:57;;;;;;;4.38;2.78;;;;;;;;;;5029001;28;20559;-63
2021/10/24 14:31:28;;;;;;;3.45;2.30;;;;;;;;;;5024122;28;20068;-64
2021/10/24 14:33:56;;;;;;;4.68;2.58;;;;;;;;;;5024184;28;20468;-65
2021/10/24 14:36:25;;;;;;;5.70;2.42;;;;;;;;;;5025240;28;20407;-63
2021/10/24 14:38:54;;;;;;;5.25;2.50;;;;;;;;;;5023934;28;20037;-64
2021/10/24 14:41:23;;;;;;;4.38;2.78;;;;;;;;;;5023372;28;20416;-67
2021/10/24 14:43:51;;;;;;;4.32;2.75;;;;;;;;;;5023361;28;20084;-64
2021/10/24 14:46:20;;;;;;;7.55;2.80;;;;;;;;;;5025117;28;20492;-64
2021/10/24 14:48:50;;;;;;;6.10;3.00;;;;;;;;;;5024479;28;20045;-67
2021/10/24 14:51:18;;;;;;;3.97;2.63;;;;;;;;;;5025760;28;20056;-64
2021/10/24 14:53:47;;;;;;;7.70;2.92;;;;;;;;;;5029333;28;20076;-64
2021/10/24 14:56:16;;;;;;;6.60;3.00;;;;;;;;;;5032170;28;20051;-65
2021/10/24 14:58:45;;;;;;;4.70;2.85;;;;;;;;;;5031212;28;20081;-64
2021/10/24 15:01:13;;;;;;;6.63;3.28;;;;;;;;;;5024607;28;20100;-63